createdAt,value
2023-04-24T00:01:10.024Z,83.15
2023-04-24T00:03:38.150Z,83.01
2023-04-24T00:06:06.335Z,83.12
2023-04-24T00:08:33.994Z,83.03
2023-04-24T00:11:01.006Z,82.96
2023-04-24T00:13:29.409Z,82.99
2023-04-24T00:15:56.958Z,82.52
2023-04-24T00:18:23.624Z,82.89
2023-04-24T00:20:50.312Z,82.82
2023-04-24T00:23:16.939Z,83.00
2023-04-24T00:25:43.713Z,83.12
2023-04-24T00:28:10.370Z,83.38
2023-04-24T00:30:37.339Z,83.18
2023-04-24T00:33:04.227Z,83.35
2023-04-24T00:35:31.083Z,83.36
2023-04-24T00:37:57.764Z,83.31
2023-04-24T00:40:24.447Z,83.39
2023-04-24T00:42:51.211Z,83.38
2023-04-24T00:45:18.294Z,83.37
2023-04-24T00:47:46.421Z,83.25
2023-04-24T00:50:15.458Z,83.28
2023-04-24T00:52:42.253Z,83.17
2023-04-24T00:55:09.645Z,83.42
2023-04-24T00:57:36.716Z,83.42
2023-04-24T01:00:04.704Z,83.34
2023-04-24T01:02:31.518Z,83.57
2023-04-24T01:04:58.517Z,83.59
2023-04-24T01:07:26.209Z,83.62
2023-04-24T01:09:53.213Z,83.85
2023-04-24T01:12:20.832Z,83.63
2023-04-24T01:14:47.512Z,83.62
2023-04-24T01:17:14.236Z,83.70
2023-04-24T01:19:41.537Z,83.72
2023-04-24T01:22:17.329Z,83.81
2023-04-24T01:24:44.307Z,83.81
2023-04-24T01:27:11.731Z,83.96
2023-04-24T01:29:38.602Z,83.96
2023-04-24T01:32:06.252Z,83.92
2023-04-24T01:34:33.538Z,84.33
2023-04-24T01:37:00.483Z,84.10
2023-04-24T01:39:29.570Z,84.08
2023-04-24T01:41:57.266Z,84.21
2023-04-24T01:44:24.740Z,84.23
2023-04-24T01:46:51.707Z,84.28
2023-04-24T01:49:18.687Z,84.36
2023-04-24T01:51:45.988Z,84.36
2023-04-24T01:54:12.878Z,84.30
2023-04-24T01:56:43.581Z,84.42
2023-04-24T01:59:13.739Z,84.42
2023-04-24T02:01:40.763Z,84.63
2023-04-24T02:04:08.940Z,84.56
2023-04-24T02:06:36.280Z,84.67
2023-04-24T02:09:04.248Z,84.63
2023-04-24T02:11:31.268Z,84.67
2023-04-24T02:13:59.129Z,84.72
2023-04-24T02:16:26.041Z,84.86
2023-04-24T02:18:52.971Z,84.78
2023-04-24T02:21:19.622Z,84.83
2023-04-24T02:23:46.328Z,84.95
2023-04-24T02:26:13.121Z,84.94
2023-04-24T02:28:39.831Z,85.05
2023-04-24T02:31:07.344Z,84.92
2023-04-24T02:33:34.244Z,84.91
2023-04-24T02:36:01.034Z,85.01
2023-04-24T02:38:27.872Z,85.00
2023-04-24T02:40:54.695Z,85.32
2023-04-24T02:43:21.620Z,85.24
2023-04-24T02:45:48.556Z,85.22
2023-04-24T02:48:15.450Z,85.42
2023-04-24T02:50:42.123Z,85.28
2023-04-24T02:53:08.760Z,85.20
2023-04-24T02:55:35.545Z,85.36
2023-04-24T02:58:02.209Z,85.50
2023-04-24T03:00:37.220Z,85.62
2023-04-24T03:03:04.149Z,85.63
2023-04-24T03:05:32.059Z,85.69
2023-04-24T03:07:58.944Z,85.85
2023-04-24T03:10:25.878Z,86.07
2023-04-24T03:12:52.561Z,86.21
2023-04-24T03:15:19.497Z,86.29
2023-04-24T03:17:46.330Z,86.32
2023-04-24T03:20:13.308Z,86.28
2023-04-24T03:22:40.190Z,86.22
2023-04-24T03:25:07.280Z,86.41
2023-04-24T03:27:33.966Z,86.37
2023-04-24T03:30:09.706Z,86.77
2023-04-24T03:32:36.380Z,86.59
2023-04-24T03:35:03.403Z,86.83
2023-04-24T03:37:31.085Z,86.77
2023-04-24T03:39:57.710Z,86.86
2023-04-24T03:42:24.422Z,86.97
2023-04-24T03:44:51.218Z,87.11
2023-04-24T03:47:17.908Z,87.21
2023-04-24T03:49:44.756Z,87.31
2023-04-24T03:52:11.616Z,87.29
2023-04-24T03:54:38.351Z,87.44
2023-04-24T03:57:05.815Z,87.45
2023-04-24T03:59:32.516Z,87.59
2023-04-24T04:01:59.248Z,87.60
2023-04-24T04:04:26.418Z,87.67
2023-04-24T04:06:53.248Z,87.96
2023-04-24T04:09:20.154Z,87.71
2023-04-24T04:11:46.842Z,87.60
2023-04-24T04:14:13.450Z,87.74
2023-04-24T04:16:42.558Z,87.91
2023-04-24T04:19:09.518Z,87.89
2023-04-24T04:21:36.307Z,87.88
2023-04-24T04:24:03.086Z,87.82
2023-04-24T04:26:32.946Z,87.93
2023-04-24T04:29:01.705Z,87.77
2023-04-24T04:31:28.453Z,87.90
2023-04-24T04:33:55.158Z,88.00
2023-04-24T04:36:21.925Z,88.14
2023-04-24T04:38:49.490Z,88.30
2023-04-24T04:41:17.903Z,88.39
2023-04-24T04:43:44.671Z,88.55
2023-04-24T04:46:12.291Z,88.78
2023-04-24T04:48:39.129Z,88.93
2023-04-24T04:51:06.030Z,89.12
2023-04-24T04:53:32.713Z,89.27
2023-04-24T04:55:59.360Z,89.24
2023-04-24T04:58:26.375Z,89.41
2023-04-24T05:00:53.347Z,89.69
2023-04-24T05:03:21.682Z,89.65
2023-04-24T05:05:48.724Z,89.84
2023-04-24T05:10:44.951Z,90.05
2023-04-24T05:13:14.001Z,90.07
2023-04-24T05:15:40.805Z,90.14
2023-04-24T05:18:07.698Z,90.31
2023-04-24T05:20:34.531Z,90.52
2023-04-24T05:23:01.527Z,90.67
2023-04-24T05:25:28.182Z,90.62
2023-04-24T05:27:55.131Z,91.15
2023-04-24T05:30:21.936Z,91.11
2023-04-24T05:32:48.844Z,91.13
2023-04-24T05:35:15.746Z,91.31
2023-04-24T05:37:42.420Z,91.21
2023-04-24T05:40:10.023Z,91.31
2023-04-24T05:42:36.710Z,91.49
2023-04-24T05:45:04.161Z,91.22
2023-04-24T05:47:30.916Z,91.63
2023-04-24T05:49:57.831Z,91.58
2023-04-24T05:52:24.508Z,91.48
2023-04-24T05:54:51.508Z,91.59
2023-04-24T05:57:18.158Z,91.64
2023-04-24T05:59:44.996Z,91.55
2023-04-24T06:02:13.872Z,91.88
2023-04-24T06:04:41.204Z,91.81
2023-04-24T06:07:08.309Z,91.84
2023-04-24T06:09:35.113Z,91.80
2023-04-24T06:12:01.841Z,92.11
2023-04-24T06:14:28.474Z,92.33
2023-04-24T06:16:55.185Z,92.29
2023-04-24T06:19:21.892Z,92.55
2023-04-24T06:21:48.613Z,92.54
2023-04-24T06:24:17.221Z,92.37
2023-04-24T06:26:44.029Z,92.69
2023-04-24T06:29:10.921Z,92.82
2023-04-24T06:31:38.355Z,92.83
2023-04-24T06:34:05.274Z,92.66
2023-04-24T06:36:32.350Z,92.84
2023-04-24T06:38:59.078Z,92.80
2023-04-24T06:41:26.121Z,92.79
2023-04-24T06:43:52.853Z,92.75
2023-04-24T06:46:19.643Z,92.77
2023-04-24T06:48:46.372Z,93.04
2023-04-24T06:51:14.219Z,92.89
2023-04-24T06:53:40.988Z,93.07
2023-04-24T06:56:07.995Z,92.89
2023-04-24T06:58:34.785Z,93.25
2023-04-24T07:01:01.542Z,93.00
2023-04-24T07:03:28.951Z,93.11
2023-04-24T07:05:56.097Z,93.25
2023-04-24T07:08:23.147Z,93.44
2023-04-24T07:10:51.765Z,93.25
2023-04-24T07:13:18.608Z,93.38
2023-04-24T07:15:45.549Z,93.57
2023-04-24T07:18:13.589Z,93.50
2023-04-24T07:20:41.904Z,93.66
2023-04-24T07:23:08.658Z,93.64
2023-04-24T07:25:35.442Z,93.73
2023-04-24T07:28:03.067Z,93.72
2023-04-24T07:30:30.227Z,93.69
2023-04-24T07:32:57.407Z,93.81
2023-04-24T07:35:26.418Z,93.92
2023-04-24T07:37:54.659Z,94.06
2023-04-24T07:40:21.614Z,94.05
2023-04-24T07:42:49.538Z,94.17
2023-04-24T07:45:16.436Z,94.20
2023-04-24T07:47:45.014Z,94.09
2023-04-24T07:50:12.057Z,94.50
2023-04-24T07:52:38.740Z,94.58
2023-04-24T07:55:06.758Z,94.55
2023-04-24T07:57:33.435Z,94.66
2023-04-24T08:00:00.141Z,94.42
2023-04-24T08:02:28.230Z,94.40
2023-04-24T08:04:55.820Z,94.30
2023-04-24T08:07:23.007Z,94.45
2023-04-24T08:09:50.982Z,94.29
2023-04-24T08:12:17.734Z,94.11
2023-04-24T08:14:44.588Z,94.34
2023-04-24T08:17:11.565Z,94.22
2023-04-24T08:19:38.250Z,94.12
2023-04-24T08:22:05.287Z,94.20
2023-04-24T08:24:32.027Z,93.85
2023-04-24T08:26:59.270Z,93.75
2023-04-24T08:29:26.236Z,94.11
2023-04-24T08:31:55.561Z,94.10
2023-04-24T08:34:22.974Z,93.92
2023-04-24T08:36:49.951Z,93.39
2023-04-24T08:39:17.002Z,93.39
2023-04-24T08:41:44.434Z,93.37
2023-04-24T08:44:12.115Z,93.67
2023-04-24T08:46:39.060Z,93.80
2023-04-24T08:49:06.174Z,93.94
2023-04-24T08:51:32.923Z,93.93
2023-04-24T08:53:59.561Z,93.71
2023-04-24T08:56:29.823Z,93.60
2023-04-24T08:58:56.808Z,93.79
2023-04-24T09:01:26.260Z,93.73
2023-04-24T09:03:56.014Z,93.71
2023-04-24T09:06:23.147Z,93.52
2023-04-24T09:08:53.324Z,93.71
2023-04-24T09:11:20.274Z,93.36
2023-04-24T09:13:47.629Z,93.03
2023-04-24T09:16:15.810Z,93.14
2023-04-24T09:18:42.699Z,93.22
2023-04-24T09:21:10.618Z,93.40
2023-04-24T09:23:37.343Z,93.23
2023-04-24T09:26:07.671Z,93.10
2023-04-24T09:28:38.601Z,93.14
2023-04-24T09:31:08.091Z,93.04
2023-04-24T09:33:35.769Z,93.11
2023-04-24T09:36:04.259Z,93.00
2023-04-24T09:38:38.058Z,93.25
2023-04-24T09:41:08.461Z,93.04
2023-04-24T09:43:36.468Z,92.95
2023-04-24T09:46:08.349Z,92.69
2023-04-24T09:48:37.229Z,92.54
2023-04-24T09:51:07.984Z,92.14
2023-04-24T09:53:34.739Z,91.92
2023-04-24T09:56:11.122Z,91.79
2023-04-24T09:58:38.617Z,91.30
2023-04-24T10:01:06.632Z,91.01
2023-04-24T10:03:34.863Z,91.04
2023-04-24T10:06:03.063Z,90.95
2023-04-24T10:08:38.340Z,90.74
2023-04-24T10:11:05.364Z,90.81
2023-04-24T10:13:33.849Z,90.29
2023-04-24T10:16:02.022Z,90.18
2023-04-24T10:18:29.242Z,90.10
2023-04-24T10:20:56.459Z,90.09
2023-04-24T10:23:24.290Z,89.76
2023-04-24T10:25:52.285Z,89.45
2023-04-24T10:28:20.262Z,89.20
2023-04-24T10:30:47.546Z,89.13
2023-04-24T10:33:15.236Z,88.89
2023-04-24T10:35:45.515Z,88.70
2023-04-24T10:38:18.028Z,88.05
2023-04-24T10:40:45.366Z,88.16
2023-04-24T10:43:17.380Z,87.53
2023-04-24T10:46:02.455Z,87.02
2023-04-24T10:48:29.177Z,86.63
2023-04-24T10:50:55.972Z,86.15
2023-04-24T10:53:24.968Z,85.92
2023-04-24T10:55:53.395Z,85.72
2023-04-24T10:58:24.588Z,85.48
2023-04-24T11:01:01.156Z,84.99
2023-04-24T11:03:30.338Z,84.97
2023-04-24T11:06:03.553Z,84.77
2023-04-24T11:08:43.901Z,84.82
2023-04-24T11:11:14.557Z,84.35
2023-04-24T11:13:59.747Z,84.43
2023-04-24T11:16:35.410Z,83.65
2023-04-24T11:19:09.503Z,83.02
2023-04-24T11:21:50.318Z,81.98
2023-04-24T11:24:41.072Z,81.88
2023-04-24T11:27:15.124Z,81.22
2023-04-24T11:29:46.349Z,80.49
2023-04-24T11:32:20.608Z,80.21
2023-04-24T11:34:51.977Z,79.76
2023-04-24T11:37:18.985Z,80.22
2023-04-24T11:39:45.822Z,79.80
2023-04-24T11:42:16.460Z,78.98
2023-04-24T11:44:44.433Z,77.42
2023-04-24T11:47:11.103Z,77.50
2023-04-24T11:49:38.696Z,77.62
2023-04-24T11:52:06.165Z,77.19
2023-04-24T11:54:33.119Z,76.86
2023-04-24T11:56:59.921Z,76.69
2023-04-24T11:59:26.943Z,76.75
2023-04-24T12:01:53.601Z,76.67
2023-04-24T12:04:20.655Z,76.24
2023-04-24T12:07:06.310Z,75.90
2023-04-24T12:09:47.921Z,75.85
2023-04-24T12:12:18.746Z,75.55
2023-04-24T12:14:50.821Z,75.47
2023-04-24T12:17:18.026Z,74.77
2023-04-24T12:19:49.211Z,73.82
2023-04-24T12:22:16.404Z,73.85
2023-04-24T12:25:03.744Z,74.29
2023-04-24T12:27:34.233Z,73.33
2023-04-24T12:30:03.859Z,72.95
2023-04-24T12:32:30.731Z,72.18
2023-04-24T12:34:59.051Z,72.12
2023-04-24T12:37:27.238Z,71.85
2023-04-24T12:40:01.591Z,71.80
2023-04-24T12:42:30.246Z,71.40
2023-04-24T12:44:59.918Z,70.67
2023-04-24T12:47:27.224Z,70.13
2023-04-24T12:49:54.207Z,69.87
2023-04-24T12:52:24.773Z,69.51
2023-04-24T12:54:54.699Z,69.26
2023-04-24T12:57:21.528Z,68.85
2023-04-24T12:59:48.160Z,68.85
2023-04-24T13:02:15.515Z,68.33
2023-04-24T13:04:42.204Z,68.57
2023-04-24T13:07:08.925Z,68.23
2023-04-24T13:09:36.003Z,68.33
2023-04-24T13:12:03.354Z,68.19
2023-04-24T13:14:30.120Z,68.26
2023-04-24T13:16:56.867Z,67.71
2023-04-24T13:19:27.941Z,67.51
2023-04-24T13:21:58.513Z,67.10
2023-04-24T13:24:26.179Z,67.39
2023-04-24T13:26:53.854Z,66.88
2023-04-24T13:29:20.874Z,67.04
2023-04-24T13:31:57.645Z,67.09
2023-04-24T13:34:25.928Z,66.59
2023-04-24T13:36:54.485Z,66.94
2023-04-24T13:39:21.873Z,66.33
2023-04-24T13:41:49.303Z,66.38
2023-04-24T13:44:17.602Z,66.27
2023-04-24T13:46:46.156Z,66.17
2023-04-24T13:49:17.151Z,66.02
2023-04-24T13:51:44.845Z,65.80
2023-04-24T13:54:11.572Z,65.44
2023-04-24T13:56:38.238Z,65.32
2023-04-24T13:59:04.870Z,65.03
2023-04-24T14:01:31.953Z,64.83
2023-04-24T14:03:58.716Z,64.72
2023-04-24T14:06:25.492Z,64.79
2023-04-24T14:08:52.524Z,64.74
2023-04-24T14:11:20.497Z,64.22
2023-04-24T14:13:47.552Z,64.28
2023-04-24T14:16:15.152Z,64.10
2023-04-24T14:18:42.058Z,64.24
2023-04-24T14:21:08.881Z,63.73
2023-04-24T14:23:35.609Z,63.80
2023-04-24T14:26:02.308Z,63.45
2023-04-24T14:28:29.118Z,63.18
2023-04-24T14:30:55.970Z,62.98
2023-04-24T14:33:22.835Z,63.13
2023-04-24T14:35:50.307Z,63.29
2023-04-24T14:38:16.983Z,63.54
2023-04-24T14:43:13.315Z,63.62
2023-04-24T14:45:41.945Z,63.51
2023-04-24T14:48:09.685Z,63.51
2023-04-24T14:50:37.046Z,63.37
2023-04-24T14:53:03.956Z,63.10
2023-04-24T14:55:30.751Z,63.08
2023-04-24T14:57:57.449Z,62.81
2023-04-24T15:00:27.016Z,62.69
2023-04-24T15:02:53.911Z,62.60
2023-04-24T15:05:21.014Z,62.58
2023-04-24T15:07:47.860Z,62.38
2023-04-24T15:10:14.588Z,62.00
2023-04-24T15:12:41.386Z,62.05
2023-04-24T15:15:09.497Z,61.91
2023-04-24T15:17:36.372Z,61.83
2023-04-24T15:20:04.872Z,61.59
2023-04-24T15:22:31.567Z,61.40
2023-04-24T15:24:58.409Z,61.19
2023-04-24T15:27:25.489Z,61.02
2023-04-24T15:29:52.273Z,60.97
2023-04-24T15:32:18.930Z,61.10
2023-04-24T15:34:45.968Z,60.91
2023-04-24T15:37:13.014Z,60.66
2023-04-24T15:39:40.190Z,60.46
2023-04-24T15:42:06.818Z,59.93
2023-04-24T15:44:33.471Z,59.74
2023-04-24T15:47:01.660Z,59.36
2023-04-24T15:49:28.333Z,59.37
2023-04-24T15:51:55.007Z,59.24
2023-04-24T15:54:21.747Z,59.01
2023-04-24T15:56:50.920Z,58.97
2023-04-24T15:59:18.647Z,58.29
2023-04-24T16:01:45.373Z,57.84
2023-04-24T16:04:12.381Z,58.02
2023-04-24T16:06:39.193Z,58.55
2023-04-24T16:09:06.242Z,58.93
2023-04-24T16:11:36.505Z,58.69
2023-04-24T16:14:03.185Z,58.95
2023-04-24T16:16:30.010Z,58.35
2023-04-24T16:18:56.829Z,58.45
2023-04-24T16:21:23.772Z,58.37
2023-04-24T16:23:50.746Z,58.19
2023-04-24T16:26:17.414Z,57.83
2023-04-24T16:28:44.092Z,57.68
2023-04-24T16:31:10.828Z,57.64
2023-04-24T16:33:37.751Z,57.63
2023-04-24T16:36:06.690Z,57.67
2023-04-24T16:38:34.245Z,57.68
2023-04-24T16:41:01.041Z,57.94
2023-04-24T16:43:27.728Z,58.26
2023-04-24T16:45:54.610Z,58.11
2023-04-24T16:48:21.299Z,57.91
2023-04-24T16:50:47.958Z,57.89
2023-04-24T16:53:14.599Z,57.99
2023-04-24T16:55:41.301Z,58.04
2023-04-24T16:58:07.930Z,58.00
2023-04-24T17:00:35.450Z,57.88
2023-04-24T17:03:02.301Z,57.84
2023-04-24T17:05:29.055Z,57.82
2023-04-24T17:07:55.744Z,57.77
2023-04-24T17:10:22.945Z,57.55
2023-04-24T17:12:50.452Z,57.67
2023-04-24T17:15:17.497Z,57.91
2023-04-24T17:17:46.181Z,58.00
2023-04-24T17:20:22.305Z,58.17
2023-04-24T17:22:50.333Z,57.83
2023-04-24T17:25:19.142Z,58.18
2023-04-24T17:27:45.849Z,57.64
2023-04-24T17:30:13.164Z,57.53
2023-04-24T17:32:40.238Z,57.31
2023-04-24T17:35:07.626Z,56.51
2023-04-24T17:37:34.428Z,55.96
2023-04-24T17:40:01.164Z,55.86
2023-04-24T17:42:27.800Z,55.13
2023-04-24T17:44:54.444Z,54.54
2023-04-24T17:47:22.437Z,54.58
2023-04-24T17:49:49.188Z,53.95
2023-04-24T17:52:17.698Z,53.50
2023-04-24T17:54:44.610Z,53.79
2023-04-24T17:57:11.410Z,53.69
2023-04-24T17:59:38.106Z,53.51
2023-04-24T18:02:04.767Z,53.67
2023-04-24T18:04:31.561Z,53.66
2023-04-24T18:06:58.422Z,53.92
2023-04-24T18:09:25.024Z,53.70
2023-04-24T18:11:51.667Z,53.78
2023-04-24T18:14:18.433Z,53.69
2023-04-24T18:16:45.433Z,53.85
2023-04-24T18:19:12.073Z,53.99
2023-04-24T18:21:38.722Z,54.33
2023-04-24T18:24:05.595Z,54.45
2023-04-24T18:26:32.182Z,54.73
2023-04-24T18:28:58.882Z,55.21
2023-04-24T18:31:25.713Z,55.93
2023-04-24T18:33:54.196Z,56.75
2023-04-24T18:36:21.269Z,57.18
2023-04-24T18:38:48.239Z,57.48
2023-04-24T18:41:17.418Z,57.79
2023-04-24T18:43:44.628Z,58.17
2023-04-24T18:46:12.497Z,58.16
2023-04-24T18:48:39.162Z,58.30
2023-04-24T18:51:05.919Z,58.10
2023-04-24T18:53:32.499Z,58.13
2023-04-24T18:55:59.212Z,58.27
2023-04-24T18:58:25.983Z,58.15
2023-04-24T19:00:52.914Z,58.21
2023-04-24T19:03:20.371Z,58.75
2023-04-24T19:05:47.098Z,58.76
2023-04-24T19:08:13.743Z,58.96
2023-04-24T19:10:43.158Z,59.19
2023-04-24T19:13:09.828Z,59.46
2023-04-24T19:15:36.616Z,59.89
2023-04-24T19:18:03.624Z,60.24
2023-04-24T19:20:30.312Z,60.51
2023-04-24T19:22:57.043Z,60.64
2023-04-24T19:25:23.719Z,60.90
2023-04-24T19:27:50.492Z,61.26
2023-04-24T19:30:17.138Z,61.57
2023-04-24T19:32:43.811Z,61.49
2023-04-24T19:35:10.541Z,61.68
2023-04-24T19:37:37.229Z,62.11
2023-04-24T19:40:04.451Z,62.46
2023-04-24T19:42:42.619Z,62.78
2023-04-24T19:45:14.337Z,63.14
2023-04-24T19:47:41.082Z,63.10
2023-04-24T19:50:08.264Z,63.15
2023-04-24T19:52:34.904Z,63.37
2023-04-24T19:55:01.548Z,63.82
2023-04-24T19:57:29.645Z,64.18
2023-04-24T19:59:56.360Z,64.43
2023-04-24T20:02:23.354Z,64.62
2023-04-24T20:04:50.379Z,65.01
2023-04-24T20:07:17.424Z,65.43
2023-04-24T20:09:44.101Z,65.55
2023-04-24T20:12:11.150Z,65.76
2023-04-24T20:14:37.799Z,66.10
2023-04-24T20:17:04.415Z,66.29
2023-04-24T20:19:31.290Z,66.40
2023-04-24T20:21:58.046Z,66.78
2023-04-24T20:24:24.816Z,66.83
2023-04-24T20:26:51.509Z,67.04
2023-04-24T20:29:18.220Z,67.40
2023-04-24T20:31:44.908Z,67.62
2023-04-24T20:34:11.996Z,67.56
2023-04-24T20:36:38.890Z,67.79
2023-04-24T20:39:06.851Z,68.10
2023-04-24T20:41:34.187Z,68.01
2023-04-24T20:44:01.224Z,68.15
2023-04-24T20:46:28.197Z,68.23
2023-04-24T20:48:54.879Z,68.14
2023-04-24T20:51:21.648Z,68.41
2023-04-24T20:53:49.707Z,68.40
2023-04-24T20:56:17.337Z,68.45
2023-04-24T20:58:49.984Z,68.71
2023-04-24T21:01:16.973Z,68.90
2023-04-24T21:03:43.811Z,69.15
2023-04-24T21:06:11.212Z,69.40
2023-04-24T21:08:38.069Z,69.54
2023-04-24T21:11:04.911Z,69.74
2023-04-24T21:13:31.563Z,69.80
2023-04-24T21:15:58.455Z,69.97
2023-04-24T21:18:26.225Z,70.16
2023-04-24T21:20:53.555Z,70.43
2023-04-24T21:23:20.385Z,70.19
2023-04-24T21:25:47.585Z,70.38
2023-04-24T21:28:14.276Z,70.88
2023-04-24T21:30:40.990Z,70.92
2023-04-24T21:33:07.844Z,70.99
2023-04-24T21:35:35.271Z,70.99
2023-04-24T21:38:01.985Z,71.38
2023-04-24T21:40:29.188Z,71.48
2023-04-24T21:42:55.886Z,71.68
2023-04-24T21:45:22.696Z,71.71
2023-04-24T21:47:49.426Z,71.58
2023-04-24T21:50:16.272Z,71.69
2023-04-24T21:52:42.941Z,71.65
2023-04-24T21:55:09.739Z,71.65
2023-04-24T21:57:36.818Z,71.60
2023-04-24T22:00:06.544Z,71.54
2023-04-24T22:02:34.050Z,71.51
2023-04-24T22:05:03.236Z,71.57
2023-04-24T22:07:30.663Z,71.74
2023-04-24T22:09:57.277Z,71.57
2023-04-24T22:12:23.927Z,71.50
2023-04-24T22:14:50.858Z,71.43
2023-04-24T22:17:17.541Z,71.36
2023-04-24T22:19:44.119Z,71.46
2023-04-24T22:22:10.805Z,71.41
2023-04-24T22:24:37.520Z,71.53
2023-04-24T22:27:04.284Z,71.75
2023-04-24T22:29:30.982Z,71.98
2023-04-24T22:31:57.845Z,72.24
2023-04-24T22:34:24.524Z,72.41
2023-04-24T22:36:51.295Z,72.47
2023-04-24T22:39:17.984Z,72.76
2023-04-24T22:41:44.632Z,72.97
2023-04-24T22:44:11.605Z,73.11
2023-04-24T22:46:38.417Z,73.44
2023-04-24T22:49:05.227Z,73.60
2023-04-24T22:51:35.264Z,74.00
2023-04-24T22:54:04.338Z,74.30
2023-04-24T22:56:31.814Z,74.20
2023-04-24T22:58:59.211Z,74.51
2023-04-24T23:01:29.305Z,74.52
2023-04-24T23:03:56.106Z,74.86
2023-04-24T23:06:22.803Z,75.00
2023-04-24T23:08:49.517Z,75.63
2023-04-24T23:11:16.131Z,75.41
2023-04-24T23:13:42.783Z,75.54
2023-04-24T23:16:09.422Z,75.65
2023-04-24T23:18:36.291Z,75.85
2023-04-24T23:21:03.561Z,76.23
2023-04-24T23:23:30.252Z,76.09
2023-04-24T23:25:57.045Z,76.35
2023-04-24T23:28:23.688Z,76.47
2023-04-24T23:30:50.393Z,76.78
2023-04-24T23:33:17.023Z,76.97
2023-04-24T23:35:43.725Z,77.01
2023-04-24T23:38:11.107Z,77.29
2023-04-24T23:40:37.828Z,77.06
2023-04-24T23:43:08.132Z,77.16
2023-04-24T23:45:35.779Z,77.34
2023-04-24T23:48:03.414Z,77.29
2023-04-24T23:50:30.197Z,77.18
2023-04-24T23:52:56.964Z,77.16
2023-04-24T23:55:23.675Z,77.50
2023-04-24T23:57:50.439Z,77.62
